Terminal Aerodrome Forecast
Issued by NWS Midland/Odessa, TX

Home | Current Version | Previous Version | Text Only | Print | Product List | Glossary On
Versions: 1 2 3 4 5 6 7 8 9 10 11 12 13 14 15 16 17 18 19 20 21 22 23 24 25 26
000
FTUS44 KMAF 041130
TAFMAF
TAF
KMAF 041130Z 0412/0512 03010KT 6SM BR SCT010 OVC020
      TEMPO 0412/0416 3SM BR OVC006
     FM042100 03013KT P6SM SCT030 OVC050
     FM050300 04007KT P6SM SCT030 BKN050 OVC100=

USA.gov is the U.S. government's official web portal to all federal, state and local government web resources and services.